Terminal Aerodrome Forecast
Issued by NWS

Home | Current Version | Previous Version | Text Only | Print | Product List | Glossary On
Versions: 1 2 3 4 5 6 7 8 9 10 11 12 13 14 15 16 17 18 19 20 21 22 23
000
FTUS43 KGRB 300530
TAFATW
TAF
KATW 300530Z 3006/3106 21004KT 6SM BR FEW040 BKN140
     FM300900 20003KT 5SM BR BKN150
      TEMPO 3009/3013 3SM BR SCT150
     FM301500 25006KT P6SM SCT035 BKN120 PROB30 3017/3020 3SM +TSRA
      OVC035CB
     FM302000 29008KT P6SM SCT040=

USA.gov is the U.S. government's official web portal to all federal, state and local government web resources and services.